Time;durP1;ratioP1;P1;durP2;ratioP2;P2;SDS_P1;SDS_P2;PMS_P1;PMS_P2;Temp;Humidity;BMP_temperature;BMP_pressure;BME280_temperature;BME280_humidity;BME280_pressure;Samples;Min_cycle;Max_cycle;Signal;HPM_P1;HPM_P2
2023/01/03 00:01:44;;;;;;;40.83;25.82;;;;;;;3.25;100.00;101183.45;1723315;83;21011;-63
2023/01/03 00:04:11;;;;;;;40.20;24.63;;;;;;;3.31;100.00;101184.30;1717957;83;21058;-68
2023/01/03 00:06:43;;;;;;;46.20;27.17;;;;;;;3.34;100.00;101184.08;1716225;83;21849;-64
2023/01/03 00:09:12;;;;;;;43.80;26.15;;;;;;;3.36;100.00;101181.73;1716731;83;21045;-63
2023/01/03 00:14:31;;;;;;;47.13;27.13;;;;;;;3.39;100.00;101171.20;1716005;83;21050;-64
2023/01/03 00:17:01;;;;;;;51.68;28.52;;;;;;;3.42;100.00;101163.72;1692734;83;21492;-64
2023/01/03 00:19:29;;;;;;;48.52;29.67;;;;;;;3.45;100.00;101164.78;1716248;83;21209;-64
2023/01/03 00:21:57;;;;;;;43.23;25.17;;;;;;;3.46;100.00;101159.97;1715698;83;20971;-66
2023/01/03 00:24:25;;;;;;;31.87;21.37;;;;;;;3.49;100.00;101153.30;1715524;83;20989;-65
2023/01/03 00:26:52;;;;;;;25.70;18.15;;;;;;;3.51;100.00;101151.41;1716031;83;21299;-64
2023/01/03 00:29:20;;;;;;;33.30;20.88;;;;;;;3.53;100.00;101154.71;1715720;83;20918;-63
2023/01/03 00:31:47;;;;;;;25.82;17.87;;;;;;;3.57;100.00;101148.39;1715156;83;22164;-64
2023/01/03 00:34:14;;;;;;;29.98;20.68;;;;;;;3.58;100.00;101152.59;1714999;83;21294;-64
2023/01/03 00:36:41;;;;;;;28.17;19.52;;;;;;;3.59;100.00;101155.99;1715857;83;21053;-63
2023/01/03 00:39:10;;;;;;;22.87;17.50;;;;;;;3.60;100.00;101150.73;1715217;83;20995;-63
2023/01/03 00:41:41;;;;;;;27.65;18.73;;;;;;;3.62;100.00;101148.84;1714988;83;20915;-64
2023/01/03 00:44:08;;;;;;;28.30;17.85;;;;;;;3.62;100.00;101150.14;1715500;83;21381;-64
2023/01/03 00:46:36;;;;;;;31.25;18.12;;;;;;;3.63;100.00;101142.75;1715753;83;21025;-63
2023/01/03 00:49:03;;;;;;;24.85;18.37;;;;;;;3.64;100.00;101146.99;1715453;83;21029;-63
2023/01/03 00:51:33;;;;;;;24.43;16.65;;;;;;;3.68;100.00;101146.77;1715253;83;20960;-65
2023/01/03 00:54:02;;;;;;;25.95;17.77;;;;;;;3.73;100.00;101143.36;1715225;83;21529;-64
2023/01/03 00:56:33;;;;;;;23.57;16.12;;;;;;;3.74;100.00;101134.20;1715583;83;21918;-64
2023/01/03 00:59:00;;;;;;;26.65;17.60;;;;;;;3.75;100.00;101132.44;1715813;83;20983;-63
2023/01/03 01:01:32;;;;;;;26.48;18.35;;;;;;;3.76;100.00;101131.52;1715424;83;21046;-65
2023/01/03 01:04:03;;;;;;;25.68;16.97;;;;;;;3.80;100.00;101131.17;1715363;83;21316;-65
2023/01/03 01:06:35;;;;;;;20.60;14.10;;;;;;;3.82;100.00;101124.59;1715362;83;21053;-63
2023/01/03 01:09:03;;;;;;;25.43;16.93;;;;;;;3.81;100.00;101129.41;1715849;83;21279;-64
2023/01/03 01:11:32;;;;;;;23.70;16.00;;;;;;;3.79;100.00;101126.11;1714936;83;21476;-64
2023/01/03 01:14:00;;;;;;;28.25;18.07;;;;;;;3.78;100.00;101121.42;1691060;83;21480;-65
2023/01/03 01:16:30;;;;;;;30.08;19.92;;;;;;;3.79;100.00;101123.53;1714989;83;21069;-63
2023/01/03 01:18:59;;;;;;;32.78;21.07;;;;;;;3.80;100.00;101120.85;1714720;83;20987;-65
2023/01/03 01:21:29;;;;;;;32.08;21.02;;;;;;;3.81;100.00;101115.22;1716199;83;21907;-63
2023/01/03 01:23:58;;;;;;;26.27;18.32;;;;;;;3.83;100.00;101118.04;1715269;83;20970;-65
2023/01/03 01:26:26;;;;;;;29.00;20.45;;;;;;;3.84;100.00;101111.12;1691888;83;21143;-63
2023/01/03 01:28:54;;;;;;;30.68;20.50;;;;;;;3.84;100.00;101109.83;1714503;83;20891;-64
2023/01/03 01:31:24;;;;;;;25.97;18.47;;;;;;;3.86;100.00;101102.78;1715151;83;21069;-64
2023/01/03 01:33:52;;;;;;;31.48;21.27;;;;;;;3.86;100.00;101101.48;1715274;83;21338;-66
2023/01/03 01:36:21;;;;;;;34.50;21.23;;;;;;;3.87;100.00;101100.57;1714995;83;20944;-63
2023/01/03 01:38:59;;;;;;;35.68;22.17;;;;;;;3.85;100.00;101091.64;1715281;83;21021;-66
2023/01/03 01:44:43;;;;;;;33.63;19.87;;;;;;;3.88;100.00;101082.39;1715381;83;21917;-64
2023/01/03 01:47:46;;;;;;;30.85;18.48;;;;;;;3.88;100.00;101074.65;1715436;83;22152;-64
2023/01/03 01:50:34;;;;;;;27.32;17.40;;;;;;;3.88;100.00;101068.20;1714400;83;21838;-65
2023/01/03 01:53:12;;;;;;;26.00;15.93;;;;;;;3.87;100.00;101065.75;1715947;83;21057;-63
2023/01/03 01:55:51;;;;;;;26.60;17.62;;;;;;;3.85;100.00;101065.86;1716048;83;21067;-64
2023/01/03 01:58:19;;;;;;;25.37;16.48;;;;;;;3.87;100.00;101068.33;1715430;83;20926;-65
2023/01/03 02:00:47;;;;;;;24.50;17.05;;;;;;;3.87;100.00;101061.89;1715429;83;21350;-66
2023/01/03 02:03:14;;;;;;;24.45;15.98;;;;;;;3.88;100.00;101062.23;1715556;83;20974;-63
2023/01/03 02:05:45;;;;;;;20.40;13.75;;;;;;;3.89;100.00;101063.86;1715947;83;21060;-63
2023/01/03 02:08:13;;;;;;;24.15;15.00;;;;;;;3.90;100.00;101061.18;1715778;83;21073;-65
2023/01/03 02:11:38;;;;;;;21.42;13.80;;;;;;;3.90;100.00;101056.47;1715350;83;20840;-65
2023/01/03 02:14:14;;;;;;;21.30;12.90;;;;;;;3.89;100.00;101050.48;1715143;83;21563;-63
2023/01/03 02:17:15;;;;;;;20.17;14.47;;;;;;;3.89;100.00;101047.09;1688488;83;21393;-63
2023/01/03 02:20:13;;;;;;;20.77;14.53;;;;;;;3.86;100.00;101049.47;1642115;83;21915;-63
2023/01/03 02:23:11;;;;;;;19.00;13.38;;;;;;;3.85;100.00;101040.06;1715717;83;20843;-64
2023/01/03 02:25:59;;;;;;;18.85;13.32;;;;;;;3.87;100.00;101038.67;1715158;83;20879;-63
2023/01/03 02:28:47;;;;;;;23.38;13.10;;;;;;;3.85;100.00;101031.04;1714599;83;21281;-64
2023/01/03 02:31:49;;;;;;;21.73;13.93;;;;;;;3.84;100.00;101031.17;1715199;83;21035;-63
2023/01/03 02:34:59;;;;;;;20.83;12.97;;;;;;;3.80;100.00;101032.36;1703085;83;21116;-63
2023/01/03 02:37:43;;;;;;;17.65;11.60;;;;;;;3.80;100.00;101023.33;1652206;85;21519;-63
2023/01/03 02:40:28;;;;;;;16.67;11.53;;;;;;;3.78;100.00;101009.25;1687817;84;20900;-63
2023/01/03 02:43:02;;;;;;;19.05;13.05;;;;;;;3.77;100.00;101010.20;1713727;83;21891;-63
2023/01/03 02:45:57;;;;;;;17.52;11.90;;;;;;;3.73;100.00;101011.85;1687759;84;20948;-63
2023/01/03 02:48:38;;;;;;;16.82;11.60;;;;;;;3.71;100.00;101007.27;1713233;83;21207;-63
2023/01/03 02:51:23;;;;;;;18.10;12.53;;;;;;;3.71;100.00;101005.98;1687776;84;21110;-63
2023/01/03 02:53:50;;;;;;;15.00;10.58;;;;;;;3.68;100.00;100991.59;1712577;83;21041;-63
2023/01/03 02:56:25;;;;;;;18.15;11.83;;;;;;;3.68;100.00;100986.91;1687057;84;21149;-63
2023/01/03 02:58:57;;;;;;;16.60;11.95;;;;;;;3.66;100.00;100978.80;1712688;83;20979;-65
2023/01/03 03:01:27;;;;;;;16.55;11.08;;;;;;;3.65;100.00;100972.02;1683592;85;21026;-64
2023/01/03 03:03:54;;;;;;;18.25;12.05;;;;;;;3.63;100.00;100970.02;1684942;84;22011;-63
2023/01/03 03:06:42;;;;;;;15.20;11.18;;;;;;;3.61;100.00;100958.20;1658255;85;21028;-64
2023/01/03 03:09:09;;;;;;;15.13;11.10;;;;;;;3.57;100.00;100960.20;1658040;85;21708;-66
2023/01/03 03:14:38;;;;;;;16.52;11.65;;;;;;;3.56;100.00;100953.86;1657406;85;21028;-65
2023/01/03 03:17:12;;;;;;;18.32;13.25;;;;;;;3.53;100.00;100956.23;1658308;85;20948;-63
2023/01/03 03:25:29;;;;;;;25.35;15.93;;;;;;;3.57;100.00;100956.33;1658079;86;21501;-63
2023/01/03 03:30:50;;;;;;;18.52;12.85;;;;;;;3.58;100.00;100955.39;1658064;85;22058;-66
2023/01/03 03:33:17;;;;;;;18.30;12.88;;;;;;;3.58;100.00;100954.57;1658116;85;21475;-64
2023/01/03 03:35:55;;;;;;;15.20;11.05;;;;;;;3.58;100.00;100950.23;1658189;85;21319;-63
2023/01/03 03:38:31;;;;;;;15.50;11.08;;;;;;;3.57;100.00;100947.31;1658412;86;21775;-63
2023/01/03 03:47:47;;;;;;;16.05;11.40;;;;;;;3.56;100.00;100932.80;1658058;85;21089;-66
2023/01/03 03:50:26;;;;;;;16.65;11.38;;;;;;;3.56;100.00;100926.79;1658235;85;21292;-65
2023/01/03 03:52:57;;;;;;;15.15;10.58;;;;;;;3.54;100.00;100911.45;1657542;86;21098;-64
2023/01/03 03:55:53;;;;;;;14.70;10.80;;;;;;;3.54;100.00;100912.75;1658611;85;21060;-63
2023/01/03 03:58:22;;;;;;;16.77;11.00;;;;;;;3.54;100.00;100911.94;1657891;85;21576;-65
2023/01/03 04:00:50;;;;;;;15.45;11.68;;;;;;;3.54;100.00;100914.51;1658661;85;21087;-64
2023/01/03 04:03:18;;;;;;;19.37;11.93;;;;;;;3.56;100.00;100906.17;1658430;86;21303;-64
2023/01/03 04:05:58;;;;;;;14.75;10.90;;;;;;;3.54;100.00;100901.15;1674721;85;21020;-65
2023/01/03 04:08:26;;;;;;;12.63;9.53;;;;;;;3.57;100.00;100905.25;1714123;83;21507;-65
2023/01/03 04:11:04;;;;;;;13.28;10.00;;;;;;;3.58;100.00;100902.54;1714407;83;21303;-64
2023/01/03 04:13:26;;;;;;;16.05;11.18;;;;;;;3.59;100.00;100900.30;1714072;83;21027;-66
2023/01/03 04:15:55;;;;;;;15.90;11.03;;;;;;;3.59;100.00;100887.89;1714078;83;20946;-64
2023/01/03 04:18:23;;;;;;;16.52;11.05;;;;;;;3.59;100.00;100889.17;1713685;83;20972;-65
2023/01/03 04:20:50;;;;;;;13.62;9.75;;;;;;;3.60;100.00;100891.66;1714731;83;21077;-64
2023/01/03 04:23:17;;;;;;;14.25;10.20;;;;;;;3.62;100.00;100888.94;1714827;83;21469;-63
2023/01/03 04:25:45;;;;;;;14.10;10.20;;;;;;;3.63;100.00;100896.53;1714401;83;20903;-65
2023/01/03 04:28:12;;;;;;;14.78;10.95;;;;;;;3.66;100.00;100898.88;1714560;83;21524;-63
2023/01/03 04:30:39;;;;;;;13.40;10.18;;;;;;;3.66;100.00;100897.59;1714203;83;20927;-65
2023/01/03 04:33:07;;;;;;;14.78;9.70;;;;;;;3.65;100.00;100897.25;1714949;83;21041;-64
2023/01/03 04:35:35;;;;;;;13.13;9.68;;;;;;;3.67;100.00;100894.53;1714739;83;21544;-63
2023/01/03 04:38:02;;;;;;;12.88;9.30;;;;;;;3.68;100.00;100894.09;1714332;83;21432;-63
2023/01/03 04:40:32;;;;;;;13.72;9.20;;;;;;;3.66;100.00;100889.04;1714322;83;21216;-64
2023/01/03 04:45:47;;;;;;;14.07;9.88;;;;;;;3.67;100.00;100882.93;1713655;83;21537;-64
2023/01/03 04:48:14;;;;;;;14.15;10.20;;;;;;;3.69;100.00;100887.98;1694339;83;21089;-64
2023/01/03 04:50:41;;;;;;;15.43;10.35;;;;;;;3.68;100.00;100882.48;1714583;83;21341;-63
2023/01/03 04:53:09;;;;;;;14.00;9.68;;;;;;;3.68;100.00;100867.02;1689719;83;21155;-63
2023/01/03 04:55:36;;;;;;;14.58;10.75;;;;;;;3.67;100.00;100863.59;1714178;83;20967;-65
2023/01/03 04:58:03;;;;;;;14.83;10.18;;;;;;;3.65;100.00;100865.02;1714487;83;21109;-64
2023/01/03 05:00:30;;;;;;;14.20;10.00;;;;;;;3.62;100.00;100866.55;1713361;83;20871;-64
2023/01/03 05:02:59;;;;;;;13.98;9.73;;;;;;;3.63;100.00;100868.66;1714612;83;21923;-64
2023/01/03 05:05:26;;;;;;;15.90;10.58;;;;;;;3.62;100.00;100865.27;1714133;83;22210;-64
2023/01/03 05:07:55;;;;;;;13.95;10.20;;;;;;;3.63;100.00;100875.91;1686833;84;21011;-66
2023/01/03 05:10:22;;;;;;;13.18;10.15;;;;;;;3.61;100.00;100871.84;1712039;83;21061;-64
2023/01/03 05:12:58;;;;;;;14.03;10.00;;;;;;;3.59;100.00;100869.84;1687939;84;20983;-64
2023/01/03 05:15:18;;;;;;;11.88;9.15;;;;;;;3.58;100.00;100871.61;1711739;83;21093;-64
2023/01/03 05:17:48;;;;;;;14.55;9.70;;;;;;;3.57;100.00;100869.98;1687608;84;21440;-67
2023/01/03 05:25:49;;;;;;;12.98;9.18;;;;;;;3.60;100.00;100867.63;1712730;83;21354;-66
2023/01/03 05:28:17;;;;;;;14.15;9.75;;;;;;;3.62;100.00;100866.55;1687979;84;21032;-63
2023/01/03 05:30:45;;;;;;;15.13;10.63;;;;;;;3.64;100.00;100866.45;1713378;83;21468;-63
2023/01/03 05:33:13;;;;;;;15.30;10.15;;;;;;;3.66;100.00;100873.09;1687733;84;21015;-66
2023/01/03 05:35:40;;;;;;;13.62;9.73;;;;;;;3.69;100.00;100869.94;1712977;83;21578;-63
2023/01/03 05:38:07;;;;;;;16.95;11.20;;;;;;;3.71;100.00;100866.27;1687705;84;21138;-64
2023/01/03 05:40:35;;;;;;;14.40;11.03;;;;;;;3.73;100.00;100873.91;1713473;83;20994;-63
2023/01/03 05:43:02;;;;;;;15.83;11.60;;;;;;;3.74;100.00;100866.03;1688262;84;21209;-63
2023/01/03 05:45:29;;;;;;;16.20;11.18;;;;;;;3.75;100.00;100861.69;1712105;83;21003;-66
2023/01/03 05:47:57;;;;;;;15.23;11.22;;;;;;;3.76;100.00;100860.30;1688135;84;21940;-63
2023/01/03 05:50:24;;;;;;;14.98;10.30;;;;;;;3.79;100.00;100853.61;1713556;83;21029;-63
2023/01/03 05:52:53;;;;;;;15.08;10.10;;;;;;;3.81;100.00;100856.05;1688137;84;20872;-64
2023/01/03 05:55:22;;;;;;;14.07;9.55;;;;;;;3.82;100.00;100850.75;1712535;83;20931;-66
2023/01/03 05:57:51;;;;;;;17.82;11.25;;;;;;;3.83;100.00;100849.83;1687428;84;21512;-63
2023/01/03 06:00:19;;;;;;;16.25;11.00;;;;;;;3.86;100.00;100850.03;1712711;83;20982;-63
2023/01/03 06:02:47;;;;;;;16.27;10.93;;;;;;;3.89;100.00;100854.95;1712690;83;21518;-63
2023/01/03 06:05:14;;;;;;;14.93;10.65;;;;;;;3.90;100.00;100852.70;1686924;84;21125;-64
2023/01/03 06:07:42;;;;;;;13.85;9.70;;;;;;;3.94;100.00;100859.73;1714059;83;22085;-63
2023/01/03 06:10:09;;;;;;;12.53;9.23;;;;;;;3.97;100.00;100857.72;1714278;83;21520;-63
2023/01/03 06:12:38;;;;;;;13.62;10.30;;;;;;;4.00;100.00;100862.62;1714702;83;21424;-64
2023/01/03 06:15:06;;;;;;;16.42;11.50;;;;;;;4.04;100.00;100867.87;1714051;83;20978;-66
2023/01/03 06:20:20;;;;;;;14.58;10.18;;;;;;;4.12;100.00;100864.67;1714667;83;21755;-63
2023/01/03 06:22:47;;;;;;;13.08;8.90;;;;;;;4.17;100.00;100867.71;1713781;83;21039;-65
2023/01/03 06:25:14;;;;;;;14.00;10.43;;;;;;;4.20;100.00;100865.33;1714570;83;21367;-64
2023/01/03 06:27:42;;;;;;;13.43;10.18;;;;;;;4.23;100.00;100868.48;1714464;83;20926;-63
2023/01/03 06:30:11;;;;;;;12.30;10.00;;;;;;;4.28;100.00;100871.96;1714327;83;21017;-64
2023/01/03 06:32:38;;;;;;;13.50;9.93;;;;;;;4.32;100.00;100866.44;1714496;83;21219;-68
2023/01/03 06:35:07;;;;;;;15.57;10.00;;;;;;;4.35;100.00;100874.38;1714569;83;21036;-65
2023/01/03 06:37:34;;;;;;;12.03;9.60;;;;;;;4.38;100.00;100862.05;1714774;83;21056;-68
2023/01/03 06:40:01;;;;;;;13.55;8.90;;;;;;;4.44;100.00;100863.79;1714570;83;21267;-65
2023/01/03 06:42:41;;;;;;;13.60;8.90;;;;;;;4.48;100.00;100861.30;1714673;83;21129;-65
2023/01/03 06:53:29;;;;;;;12.93;9.40;;;;;;;4.60;100.00;100852.03;1714615;83;22255;-64
2023/01/03 06:55:56;;;;;;;13.28;9.03;;;;;;;4.64;100.00;100851.30;1714514;83;21280;-65
2023/01/03 06:58:24;;;;;;;10.90;8.43;;;;;;;4.65;100.00;100849.05;1714687;83;22360;-63
2023/01/03 07:00:51;;;;;;;12.67;8.97;;;;;;;4.68;100.00;100846.22;1714339;83;21722;-63
2023/01/03 07:03:19;;;;;;;11.37;8.53;;;;;;;4.69;100.00;100853.48;1715056;83;21191;-63
2023/01/03 07:05:46;;;;;;;11.83;8.68;;;;;;;4.69;100.00;100853.01;1713639;83;21300;-63
2023/01/03 07:08:14;;;;;;;11.47;8.43;;;;;;;4.70;100.00;100855.11;1686501;84;21065;-65
2023/01/03 07:10:41;;;;;;;12.33;8.87;;;;;;;4.70;100.00;100852.53;1712686;83;22357;-64
2023/01/03 07:15:56;;;;;;;11.20;8.13;;;;;;;4.80;100.00;100852.10;1712067;83;20998;-63
2023/01/03 07:18:25;;;;;;;11.27;8.23;;;;;;;4.83;100.00;100846.68;1686384;84;21903;-63
2023/01/03 07:20:52;;;;;;;12.53;8.87;;;;;;;4.83;100.00;100843.62;1712747;83;21301;-64
2023/01/03 07:23:19;;;;;;;10.73;8.33;;;;;;;4.84;100.00;100838.78;1687743;84;21340;-63
2023/01/03 07:25:46;;;;;;;10.90;7.97;;;;;;;4.86;100.00;100833.51;1712994;83;21173;-64
2023/01/03 07:28:13;;;;;;;12.13;8.53;;;;;;;4.88;100.00;100832.88;1686901;84;21303;-65
2023/01/03 07:30:43;;;;;;;11.57;8.00;;;;;;;4.93;100.00;100836.39;1713533;83;22988;-63
2023/01/03 07:33:11;;;;;;;10.70;8.00;;;;;;;4.96;100.00;100830.45;1713400;83;21124;-64
2023/01/03 07:35:38;;;;;;;10.23;7.40;;;;;;;4.99;100.00;100830.20;1688475;84;21268;-63
2023/01/03 07:38:06;;;;;;;11.67;8.63;;;;;;;5.01;100.00;100828.31;1711719;83;21106;-64
2023/01/03 07:40:34;;;;;;;10.53;8.00;;;;;;;5.03;100.00;100824.29;1687712;84;21867;-63
2023/01/03 07:45:48;;;;;;;11.07;8.67;;;;;;;5.13;100.00;100818.19;1686816;84;21332;-65
2023/01/03 07:48:16;;;;;;;9.70;7.60;;;;;;;5.17;100.00;100819.22;1713097;83;21383;-63
2023/01/03 07:50:44;;;;;;;12.13;8.33;;;;;;;5.22;100.00;100824.31;1688015;84;21570;-63
2023/01/03 07:53:15;;;;;;;10.07;7.23;;;;;;;5.28;100.00;100820.39;1713326;83;21757;-63
2023/01/03 07:55:44;;;;;;;10.28;8.00;;;;;;;5.31;100.00;100811.89;1687293;84;21214;-67
2023/01/03 07:58:11;;;;;;;12.07;8.80;;;;;;;5.40;100.00;100808.97;1713696;83;21359;-65
2023/01/03 08:00:40;;;;;;;10.50;7.90;;;;;;;5.46;100.00;100803.74;1688133;84;21270;-65
2023/01/03 08:03:08;;;;;;;10.00;8.00;;;;;;;5.50;100.00;100804.62;1713607;83;21267;-66
2023/01/03 08:05:35;;;;;;;9.73;7.17;;;;;;;5.56;100.00;100796.78;1713678;83;21774;-64
2023/01/03 08:08:04;;;;;;;9.50;7.53;;;;;;;5.64;100.00;100799.97;1667277;84;21239;-63
2023/01/03 08:13:17;;;;;;;10.27;7.87;;;;;;;5.79;100.00;100789.53;1666460;86;21265;-66
2023/01/03 08:15:50;;;;;;;9.97;8.20;;;;;;;5.88;100.00;100782.73;1665246;86;21216;-66
2023/01/03 08:18:19;;;;;;;11.93;9.20;;;;;;;5.98;100.00;100777.88;1695410;84;22246;-64
2023/01/03 08:20:47;;;;;;;12.77;9.43;;;;;;;6.04;100.00;100773.45;1666152;86;21758;-63
2023/01/03 08:23:15;;;;;;;13.03;9.93;;;;;;;6.11;100.00;100769.02;1665885;86;21289;-66
2023/01/03 08:25:44;;;;;;;12.43;9.20;;;;;;;6.14;100.00;100762.23;1665376;86;22190;-63
2023/01/03 08:28:11;;;;;;;11.60;8.87;;;;;;;6.19;100.00;100754.88;1665917;86;21105;-63
2023/01/03 08:30:44;;;;;;;11.20;8.67;;;;;;;6.27;100.00;100756.28;1666153;86;21388;-63
2023/01/03 08:33:13;;;;;;;11.40;9.07;;;;;;;6.33;100.00;100753.13;1665499;86;21266;-65
2023/01/03 08:35:44;;;;;;;11.50;8.93;;;;;;;6.42;100.00;100738.50;1665886;86;21270;-66
2023/01/03 08:38:15;;;;;;;13.05;10.43;;;;;;;6.49;100.00;100733.89;1666372;86;21333;-63
2023/01/03 08:40:42;;;;;;;11.80;9.77;;;;;;;6.58;100.00;100717.95;1687313;84;20983;-63
2023/01/03 08:43:10;;;;;;;12.80;10.50;;;;;;;6.65;100.00;100713.01;1712465;83;21676;-63
2023/01/03 08:45:37;;;;;;;12.77;10.00;;;;;;;6.74;100.00;100712.12;1665675;86;22042;-64
2023/01/03 08:48:06;;;;;;;13.47;11.03;;;;;;;6.90;100.00;100701.93;1687074;84;21342;-63
2023/01/03 08:50:33;;;;;;;12.97;10.17;;;;;;;7.12;100.00;100694.64;1712668;83;21616;-63
2023/01/03 08:53:00;;;;;;;12.13;9.07;;;;;;;7.43;100.00;100689.88;1666078;86;21273;-62
2023/01/03 08:55:28;;;;;;;13.87;10.53;;;;;;;7.85;100.00;100682.67;1665723;85;22078;-65
2023/01/03 08:57:55;;;;;;;13.77;11.67;;;;;;;8.29;100.00;100680.23;1686642;84;21437;-62
2023/01/03 09:00:24;;;;;;;12.13;10.03;;;;;;;8.76;100.00;100664.63;1712998;82;21579;-63
2023/01/03 09:02:52;;;;;;;12.90;10.40;;;;;;;9.14;100.00;100664.47;1665817;86;21708;-64
2023/01/03 09:05:19;;;;;;;14.97;12.20;;;;;;;9.49;100.00;100659.38;1686595;84;21780;-63
2023/01/03 09:07:47;;;;;;;15.47;11.80;;;;;;;9.85;100.00;100652.46;1712259;83;21837;-63
2023/01/03 09:10:14;;;;;;;14.47;11.57;;;;;;;10.28;100.00;100648.23;1665794;86;21824;-62
2023/01/03 09:12:42;;;;;;;15.80;12.60;;;;;;;10.72;100.00;100641.92;1687621;84;21050;-63
2023/01/03 09:15:10;;;;;;;13.77;10.97;;;;;;;11.15;100.00;100634.39;1712136;82;22281;-62
2023/01/03 09:17:42;;;;;;;15.90;11.20;;;;;;;11.58;100.00;100626.77;1665818;86;20919;-65
2023/01/03 09:20:09;;;;;;;11.67;9.83;;;;;;;11.95;100.00;100610.70;1686630;84;21034;-62
2023/01/03 09:22:37;;;;;;;10.50;8.53;;;;;;;12.25;100.00;100601.79;1712416;82;21047;-64
2023/01/03 09:25:05;;;;;;;10.20;9.00;;;;;;;12.45;100.00;100582.87;1665862;86;21885;-61
2023/01/03 09:27:32;;;;;;;11.80;9.93;;;;;;;12.55;100.00;100570.30;1665795;85;21181;-65
2023/01/03 09:30:00;;;;;;;12.47;10.03;;;;;;;12.66;100.00;100560.64;1665723;86;21106;-62
2023/01/03 09:32:27;;;;;;;11.47;8.63;;;;;;;12.82;100.00;100556.94;1687046;84;21071;-61
2023/01/03 09:34:54;;;;;;;12.53;10.00;;;;;;;12.99;100.00;100545.66;1712334;82;21544;-63
2023/01/03 09:37:23;;;;;;;12.77;9.87;;;;;;;13.17;100.00;100538.13;1665542;86;22079;-61
2023/01/03 09:39:51;;;;;;;11.87;9.40;;;;;;;13.38;100.00;100522.38;1665447;86;21402;-62
2023/01/03 09:45:11;;;;;;;16.13;12.43;;;;;;;13.54;100.00;100515.98;1665182;86;21243;-63
2023/01/03 09:47:39;;;;;;;13.38;10.38;;;;;;;13.62;100.00;100513.70;1687291;84;21284;-61
2023/01/03 09:50:10;;;;;;;10.70;8.97;;;;;;;13.70;100.00;100500.41;1713066;82;21003;-60
2023/01/03 10:05:02;;;;;;;14.33;10.10;;;;;;;13.72;100.00;100492.38;1666113;86;21043;-61
2023/01/03 10:08:06;;;;;;;10.93;9.57;;;;;;;13.78;100.00;100480.58;1686231;84;21233;-60
2023/01/03 10:11:16;;;;;;;15.63;10.03;;;;;;;13.88;100.00;100476.28;1715623;83;21987;-60
2023/01/03 10:14:17;;;;;;;12.93;10.80;;;;;;;14.01;100.00;100471.04;1714206;83;20931;-60
2023/01/03 10:17:17;;;;;;;11.70;8.90;;;;;;;14.19;100.00;100464.41;1656034;86;20947;-65
2023/01/03 10:20:27;;;;;;;11.20;9.30;;;;;;;14.28;100.00;100455.32;1657283;85;21011;-60
2023/01/03 10:22:55;;;;;;;12.27;9.73;;;;;;;14.24;100.00;100447.05;1712911;83;21584;-60
2023/01/03 10:25:23;;;;;;;12.73;9.30;;;;;;;14.21;100.00;100441.44;1714746;83;21476;-60
2023/01/03 10:27:57;;;;;;;14.43;11.03;;;;;;;14.20;100.00;100430.12;1714373;83;20934;-64
2023/01/03 10:30:39;;;;;;;11.93;9.80;;;;;;;14.17;100.00;100429.23;1685002;83;21469;-60
2023/01/03 10:33:09;;;;;;;;;;;;;;;14.13;100.00;100422.78;1717168;83;21614;-64
2023/01/03 10:35:36;;;;;;;11.03;9.03;;;;;;;14.12;100.00;100419.84;1714000;83;22100;-64
2023/01/03 10:38:04;;;;;;;11.13;9.23;;;;;;;14.15;100.00;100418.64;1714967;83;21082;-60
2023/01/03 10:40:50;;;;;;;12.70;9.50;;;;;;;14.18;100.00;100409.87;1714965;83;20974;-60
2023/01/03 10:43:28;;;;;;;14.13;10.00;;;;;;;14.20;100.00;100404.41;1714526;83;21540;-61
2023/01/03 10:46:04;;;;;;;12.67;10.47;;;;;;;14.16;100.00;100397.45;1715583;83;20944;-59
2023/01/03 10:48:39;;;;;;;12.60;9.77;;;;;;;14.08;100.00;100392.42;1713833;83;21413;-60
2023/01/03 10:52:48;;;;;;;12.73;9.63;;;;;;;13.76;100.00;100387.48;1793690;79;24097;-61
2023/01/03 10:55:17;;;;;;;12.53;10.37;;;;;;;13.69;100.00;100384.86;1754353;80;20940;-61
2023/01/03 10:57:58;;;;;;;14.30;10.57;;;;;;;13.60;100.00;100372.46;1753522;81;20991;-63
2023/01/03 11:00:36;;;;;;;14.60;11.03;;;;;;;13.61;100.00;100371.95;1754581;81;20845;-60
2023/01/03 11:03:11;;;;;;;13.27;10.93;;;;;;;13.57;100.00;100379.91;1754205;81;20920;-60
2023/01/03 11:05:40;;;;;;;11.57;9.50;;;;;;;13.52;100.00;100370.01;1753961;81;20924;-61
2023/01/03 11:08:36;;;;;;;12.83;9.70;;;;;;;13.52;100.00;100363.97;1754194;81;21034;-60
2023/01/03 11:11:03;;;;;;;10.63;9.33;;;;;;;13.54;100.00;100369.31;1720433;83;21238;-62
2023/01/03 11:13:35;;;;;;;13.00;10.60;;;;;;;13.55;100.00;100351.79;1720228;83;21528;-60
2023/01/03 11:16:12;;;;;;;13.90;10.80;;;;;;;13.54;100.00;100348.37;1707384;84;21100;-61
2023/01/03 11:18:41;;;;;;;15.27;11.33;;;;;;;13.52;100.00;100335.16;1683277;84;20901;-64
2023/01/03 11:21:22;;;;;;;14.53;10.93;;;;;;;13.54;100.00;100338.40;1706716;84;21032;-63
2023/01/03 11:24:24;;;;;;;16.12;10.68;;;;;;;13.64;100.00;100324.41;1707540;84;21208;-60
2023/01/03 11:27:18;;;;;;;11.20;8.67;;;;;;;13.72;100.00;100316.86;1706761;84;21323;-61
2023/01/03 11:30:20;;;;;;;11.23;8.30;;;;;;;13.71;100.00;100316.53;1707439;83;20945;-64
2023/01/03 11:33:20;;;;;;;12.40;8.87;;;;;;;13.65;100.00;100316.05;1707388;84;21041;-60
2023/01/03 11:36:07;;;;;;;11.60;9.30;;;;;;;13.61;100.00;100310.41;1706998;84;21455;-60
2023/01/03 11:39:00;;;;;;;9.30;7.57;;;;;;;13.50;100.00;100310.49;1706573;84;21232;-61
2023/01/03 11:42:09;;;;;;;12.80;8.60;;;;;;;13.39;100.00;100309.27;1718225;83;21484;-59
2023/01/03 11:45:12;;;;;;;11.07;8.13;;;;;;;13.27;100.00;100299.59;1717655;83;20941;-59
2023/01/03 11:48:29;;;;;;;12.07;9.30;;;;;;;13.12;100.00;100292.70;1700471;82;21600;-63
2023/01/03 11:51:16;;;;;;;14.43;10.03;;;;;;;13.01;100.00;100286.73;1671329;84;21314;-65
2023/01/03 11:54:07;;;;;;;10.27;8.17;;;;;;;12.93;100.00;100288.73;1660075;85;21883;-59
2023/01/03 11:56:39;;;;;;;12.60;9.83;;;;;;;12.90;100.00;100286.80;1660682;83;21470;-60
2023/01/03 11:59:49;;;;;;;11.83;9.00;;;;;;;12.90;100.00;100284.19;1710732;83;21068;-59
2023/01/03 12:02:54;;;;;;;11.30;7.73;;;;;;;12.90;100.00;100282.88;1710312;83;21382;-60
2023/01/03 12:05:43;;;;;;;8.13;6.40;;;;;;;12.90;100.00;100279.45;1709149;83;21108;-61
2023/01/03 12:08:48;;;;;;;7.93;6.90;;;;;;;12.87;100.00;100279.34;1710464;83;21225;-60
2023/01/03 12:11:39;;;;;;;9.53;7.00;;;;;;;12.81;100.00;100289.81;1710208;83;20900;-59
2023/01/03 12:14:31;;;;;;;9.28;6.70;;;;;;;12.78;100.00;100273.19;1709765;83;20988;-63
2023/01/03 12:17:20;;;;;;;8.57;6.33;;;;;;;12.72;100.00;100275.27;1710184;83;21604;-59
2023/01/03 12:19:55;;;;;;;9.90;7.10;;;;;;;12.61;100.00;100268.32;1710706;83;21548;-59
2023/01/03 12:22:37;;;;;;;8.47;6.60;;;;;;;12.53;100.00;100266.35;1710594;83;21860;-59
2023/01/03 12:25:37;;;;;;;9.53;6.80;;;;;;;12.48;100.00;100255.69;1709627;83;20901;-61
2023/01/03 12:28:18;;;;;;;8.87;7.07;;;;;;;12.40;100.00;100273.65;1710653;83;21434;-59
2023/01/03 12:31:13;;;;;;;;;;;;;;;12.33;100.00;100263.66;1713190;83;21465;-61
2023/01/03 12:33:48;;;;;;;10.77;7.07;;;;;;;12.26;100.00;100258.39;1711058;83;20208;-60
2023/01/03 12:36:42;;;;;;;10.30;6.47;;;;;;;12.17;100.00;100257.76;1709395;83;21308;-60
2023/01/03 12:39:34;;;;;;;11.10;7.63;;;;;;;12.09;100.00;100257.11;1684603;83;21506;-59
2023/01/03 12:42:13;;;;;;;9.60;7.40;;;;;;;12.06;100.00;100268.75;1710852;83;20999;-60
2023/01/03 12:44:42;;;;;;;10.77;7.40;;;;;;;12.04;100.00;100262.09;1703524;83;20995;-60
2023/01/03 12:47:26;;;;;;;9.57;7.70;;;;;;;12.01;100.00;100262.47;1709109;83;21043;-63
2023/01/03 12:50:08;;;;;;;10.83;8.13;;;;;;;11.97;100.00;100262.55;1695821;83;21887;-60
2023/01/03 12:52:36;;;;;;;10.55;7.62;;;;;;;11.93;100.00;100269.48;1711098;83;21060;-60